Terminal Aerodrome Forecast
Issued by NWS

Home | Current Version | Previous Version | Text Only | Print | Product List | Glossary On
Versions: 1 2 3 4 5 6 7 8 9 10 11 12 13 14 15 16 17 18 19 20 21
032
FTUS46 KSTO 091917 AAB
TAFMHR
TAF AMD
KMHR 091917Z 0919/1018 15008KT P6SM BKN025 BKN050
     FM100200 17007KT 4SM BR OVC020
     FM100700 14010KT 4SM -RA OVC015
     FM101200 16015G25KT 6SM -RA BR OVC015=

USA.gov is the U.S. government's official web portal to all federal, state and local government web resources and services.